createdAt,value
2022-07-30T00:01:16.809Z,17.30
2022-07-30T00:03:43.604Z,17.20
2022-07-30T00:06:10.264Z,17.80
2022-07-30T00:08:36.946Z,17.20
2022-07-30T00:11:03.656Z,19.60
2022-07-30T00:13:30.379Z,19.30
2022-07-30T00:15:57.032Z,18.10
2022-07-30T00:18:23.684Z,19.40
2022-07-30T00:20:50.336Z,19.00
2022-07-30T00:23:17.170Z,19.50
2022-07-30T00:25:44.240Z,19.40
2022-07-30T00:28:10.973Z,17.30
2022-07-30T00:30:38.800Z,17.60
2022-07-30T00:33:05.610Z,19.00
2022-07-30T00:35:35.124Z,17.60
2022-07-30T00:38:01.860Z,17.40
2022-07-30T00:40:28.605Z,17.70
2022-07-30T00:42:55.289Z,17.40
2022-07-30T00:45:22.034Z,18.80
2022-07-30T00:47:48.879Z,19.50
2022-07-30T00:50:16.008Z,17.30
2022-07-30T00:52:43.206Z,17.20
2022-07-30T00:55:10.550Z,19.00
2022-07-30T00:57:37.429Z,17.80
2022-07-30T01:00:07.871Z,18.20
2022-07-30T01:02:34.723Z,17.80
2022-07-30T01:05:01.435Z,17.80
2022-07-30T01:12:26.216Z,17.80
2022-07-30T01:14:53.404Z,17.80
2022-07-30T01:17:20.270Z,17.80
2022-07-30T01:19:55.830Z,18.50
2022-07-30T01:22:30.542Z,19.10
2022-07-30T01:25:03.715Z,17.90
2022-07-30T01:27:32.704Z,18.00
2022-07-30T01:30:00.262Z,17.70
2022-07-30T01:32:27.529Z,19.00
2022-07-30T01:34:56.028Z,18.50
2022-07-30T01:37:23.383Z,19.30
2022-07-30T01:39:51.045Z,19.60
2022-07-30T01:42:18.542Z,19.80
2022-07-30T01:44:45.759Z,19.40
2022-07-30T01:47:13.825Z,17.50
2022-07-30T01:49:41.740Z,17.90
2022-07-30T01:52:08.517Z,19.20
2022-07-30T01:54:35.756Z,19.30
2022-07-30T01:57:02.986Z,17.20
2022-07-30T01:59:31.823Z,19.50
2022-07-30T02:01:58.566Z,17.10
2022-07-30T02:04:25.281Z,19.20
2022-07-30T02:07:04.331Z,17.40
2022-07-30T02:09:36.371Z,17.80
2022-07-30T02:12:22.880Z,17.80
2022-07-30T02:14:52.251Z,17.20
2022-07-30T02:17:29.349Z,18.30
2022-07-30T02:19:58.361Z,17.90
2022-07-30T02:22:26.104Z,19.10
2022-07-30T02:24:53.471Z,19.20
2022-07-30T02:27:24.060Z,17.40
2022-07-30T02:29:52.250Z,17.70
2022-07-30T02:32:20.724Z,18.70
2022-07-30T02:34:49.900Z,18.50
2022-07-30T02:37:18.436Z,18.70
2022-07-30T02:40:05.343Z,18.20
2022-07-30T02:42:32.054Z,17.40
2022-07-30T02:44:59.068Z,17.60
2022-07-30T02:47:26.793Z,18.60
2022-07-30T02:49:54.508Z,17.00
2022-07-30T02:52:22.253Z,17.00
2022-07-30T02:54:49.527Z,17.20
2022-07-30T02:57:17.637Z,16.70
2022-07-30T02:59:45.070Z,17.10
2022-07-30T03:02:12.243Z,17.00
2022-07-30T03:04:41.981Z,17.20
2022-07-30T03:07:09.487Z,16.80
2022-07-30T03:09:51.318Z,16.80
2022-07-30T03:12:19.786Z,19.10
2022-07-30T03:14:46.501Z,18.50
2022-07-30T03:17:15.174Z,17.60
2022-07-30T03:19:42.438Z,16.60
2022-07-30T03:22:09.755Z,16.70
2022-07-30T03:24:37.595Z,17.10
2022-07-30T03:27:05.185Z,17.40
2022-07-30T03:29:32.513Z,19.00
2022-07-30T03:31:59.877Z,18.80
2022-07-30T03:34:27.275Z,17.30
2022-07-30T03:36:55.599Z,18.60
2022-07-30T03:39:22.481Z,18.10
2022-07-30T03:41:49.914Z,17.00
2022-07-30T03:46:44.824Z,16.90
2022-07-30T03:49:12.044Z,18.20
2022-07-30T03:51:38.926Z,16.80
2022-07-30T03:54:13.318Z,16.70
2022-07-30T03:56:40.706Z,16.70
2022-07-30T03:59:07.456Z,16.70
2022-07-30T04:01:34.234Z,16.20
2022-07-30T04:04:04.983Z,16.20
2022-07-30T04:06:32.667Z,16.90
2022-07-30T04:08:59.291Z,16.60
2022-07-30T04:11:41.489Z,16.30
2022-07-30T04:14:09.281Z,16.30
2022-07-30T04:16:42.097Z,16.40
2022-07-30T04:19:12.543Z,16.50
2022-07-30T04:21:40.329Z,15.30
2022-07-30T04:24:08.078Z,15.70
2022-07-30T04:26:35.853Z,16.20
2022-07-30T04:29:03.099Z,15.20
2022-07-30T04:31:39.914Z,15.80
2022-07-30T04:34:07.506Z,16.70
2022-07-30T04:36:34.574Z,15.60
2022-07-30T04:39:01.183Z,15.50
2022-07-30T04:41:27.846Z,16.10
2022-07-30T04:43:54.519Z,15.50
2022-07-30T04:46:24.511Z,15.40
2022-07-30T04:48:51.761Z,15.90
2022-07-30T04:51:22.782Z,17.50
2022-07-30T04:53:50.563Z,15.00
2022-07-30T04:56:18.322Z,15.00
2022-07-30T04:58:45.847Z,15.50
2022-07-30T05:01:16.437Z,18.30
2022-07-30T05:03:43.527Z,15.80
2022-07-30T05:06:11.887Z,17.80
2022-07-30T05:08:39.601Z,16.10
2022-07-30T05:11:06.256Z,15.50
2022-07-30T05:13:34.452Z,16.90
2022-07-30T05:16:01.389Z,16.30
2022-07-30T05:18:28.087Z,17.50
2022-07-30T05:20:54.744Z,16.70
2022-07-30T05:23:21.406Z,15.90
2022-07-30T05:25:48.086Z,15.60
2022-07-30T05:28:14.750Z,17.70
2022-07-30T05:30:41.934Z,15.40
2022-07-30T05:33:12.244Z,15.50
2022-07-30T05:35:42.599Z,15.50
2022-07-30T05:38:09.257Z,16.30
2022-07-30T05:40:35.984Z,15.60
2022-07-30T05:43:02.657Z,18.20
2022-07-30T05:45:29.894Z,16.80
2022-07-30T05:47:56.542Z,15.90
2022-07-30T05:50:25.122Z,17.80
2022-07-30T05:52:51.837Z,16.80
2022-07-30T05:55:18.494Z,18.50
2022-07-30T06:00:12.469Z,16.90
2022-07-30T06:02:42.531Z,17.10
2022-07-30T06:05:09.376Z,16.70
2022-07-30T06:07:36.091Z,17.90
2022-07-30T06:10:02.870Z,18.80
2022-07-30T06:12:29.977Z,17.30
2022-07-30T06:14:57.137Z,17.20
2022-07-30T06:17:24.293Z,18.80
2022-07-30T06:19:51.323Z,17.50
2022-07-30T06:22:20.695Z,17.20
2022-07-30T06:29:43.953Z,18.30
2022-07-30T06:32:10.613Z,18.90
2022-07-30T06:34:37.221Z,17.70
2022-07-30T06:37:04.129Z,19.10
2022-07-30T06:39:57.990Z,17.80
2022-07-30T06:42:17.607Z,17.50
2022-07-30T06:47:12.261Z,18.90
2022-07-30T06:49:39.319Z,19.10
2022-07-30T06:52:06.249Z,19.20
2022-07-30T06:54:33.257Z,19.60
2022-07-30T06:57:00.310Z,20.40
2022-07-30T06:59:27.722Z,19.20
2022-07-30T07:01:54.542Z,19.90
2022-07-30T07:04:21.463Z,18.40
2022-07-30T07:06:48.293Z,18.40
2022-07-30T07:09:14.929Z,18.70
2022-07-30T07:11:41.577Z,19.80
2022-07-30T07:14:08.206Z,19.90
2022-07-30T07:16:35.185Z,18.30
2022-07-30T07:19:01.880Z,20.50
2022-07-30T07:21:28.529Z,19.90
2022-07-30T07:23:55.189Z,19.70
2022-07-30T07:26:21.893Z,20.00
2022-07-30T07:28:48.624Z,19.50
2022-07-30T07:32:02.498Z,19.60
2022-07-30T07:36:29.073Z,19.90
2022-07-30T07:38:55.894Z,20.10
2022-07-30T07:43:49.571Z,20.10
2022-07-30T07:46:33.057Z,20.20
2022-07-30T07:51:46.852Z,20.60
2022-07-30T07:54:21.514Z,20.10
2022-07-30T07:56:48.916Z,19.60
2022-07-30T07:59:15.798Z,20.90
2022-07-30T08:01:44.055Z,19.70
2022-07-30T08:04:10.975Z,21.70
2022-07-30T08:06:37.637Z,18.90
2022-07-30T08:09:04.277Z,20.50
2022-07-30T08:11:31.024Z,22.10
2022-07-30T08:13:57.696Z,21.90
2022-07-30T08:16:24.388Z,21.40
2022-07-30T08:18:51.148Z,21.70
2022-07-30T08:21:17.920Z,21.30
2022-07-30T08:23:44.585Z,20.80
2022-07-30T08:26:11.383Z,20.60
2022-07-30T08:28:38.138Z,20.50
2022-07-30T08:31:04.822Z,21.90
2022-07-30T08:33:31.573Z,21.20
2022-07-30T08:35:59.239Z,21.30
2022-07-30T08:38:30.683Z,19.60
2022-07-30T08:40:58.202Z,19.50
2022-07-30T08:43:25.473Z,19.80
2022-07-30T08:45:52.632Z,21.10
2022-07-30T08:48:20.704Z,21.50
2022-07-30T08:53:15.600Z,19.50
2022-07-30T08:55:42.316Z,20.80
2022-07-30T08:58:18.819Z,19.50
2022-07-30T09:00:45.479Z,18.70
2022-07-30T09:03:12.404Z,20.30
2022-07-30T09:05:39.097Z,20.40
2022-07-30T09:08:08.844Z,20.70
2022-07-30T09:10:35.689Z,19.90
2022-07-30T09:13:02.364Z,19.80
2022-07-30T09:15:29.387Z,20.20
2022-07-30T09:17:57.892Z,20.80
2022-07-30T09:20:29.382Z,20.20
2022-07-30T09:23:00.326Z,20.70
2022-07-30T09:25:43.934Z,20.80
2022-07-30T09:28:16.332Z,21.10
2022-07-30T09:30:51.054Z,21.20
2022-07-30T09:33:33.706Z,21.10
2022-07-30T09:36:01.251Z,21.10
2022-07-30T09:38:28.306Z,22.60
2022-07-30T09:45:57.856Z,22.00
2022-07-30T09:50:52.272Z,22.30
2022-07-30T09:53:19.357Z,22.60
2022-07-30T09:55:48.534Z,23.60
2022-07-30T10:00:56.793Z,23.10
2022-07-30T10:03:34.464Z,24.60
2022-07-30T10:06:11.312Z,22.50
2022-07-30T10:08:41.761Z,23.60
2022-07-30T10:13:37.063Z,23.20
2022-07-30T10:16:04.762Z,23.30
2022-07-30T10:18:33.871Z,23.40
2022-07-30T10:21:05.384Z,24.40
2022-07-30T10:23:32.964Z,23.90
2022-07-30T10:26:00.744Z,23.50
2022-07-30T10:31:00.814Z,24.10
2022-07-30T10:33:34.956Z,24.70
2022-07-30T10:36:04.389Z,23.40
2022-07-30T10:38:46.828Z,23.40
2022-07-30T10:41:48.562Z,23.10
2022-07-30T10:44:29.989Z,23.20
2022-07-30T10:47:07.859Z,23.40
2022-07-30T10:49:41.599Z,23.60
2022-07-30T10:52:09.113Z,24.60
2022-07-30T10:54:41.936Z,23.30
2022-07-30T10:57:22.819Z,23.50
2022-07-30T11:02:31.296Z,24.80
2022-07-30T11:12:41.778Z,24.50
2022-07-30T11:15:19.277Z,24.80
2022-07-30T11:17:59.215Z,24.80
2022-07-30T11:20:26.616Z,24.50
2022-07-30T11:25:27.469Z,25.60
2022-07-30T11:28:32.837Z,26.10
2022-07-30T11:31:01.876Z,25.90
2022-07-30T11:36:10.549Z,26.20
2022-07-30T11:38:51.076Z,26.00
2022-07-30T11:41:17.824Z,24.90
2022-07-30T11:53:33.502Z,26.50
2022-07-30T11:56:02.233Z,26.90
2022-07-30T11:58:30.151Z,27.90
2022-07-30T12:00:57.633Z,26.40
2022-07-30T12:03:26.582Z,26.90
2022-07-30T12:05:56.791Z,26.40
2022-07-30T12:08:35.160Z,26.10
2022-07-30T12:11:03.101Z,26.10
2022-07-30T12:13:43.477Z,25.00
2022-07-30T12:16:12.110Z,24.30
2022-07-30T12:21:12.106Z,24.20
2022-07-30T12:23:38.937Z,24.10
2022-07-30T12:26:05.677Z,23.30
2022-07-30T12:28:33.249Z,24.70
2022-07-30T12:31:00.477Z,24.80
2022-07-30T12:33:27.131Z,25.40
2022-07-30T12:35:57.870Z,26.70
2022-07-30T12:38:25.308Z,26.20
2022-07-30T12:40:56.470Z,26.40
2022-07-30T12:43:41.959Z,25.80
2022-07-30T12:46:11.927Z,25.20
2022-07-30T12:48:52.055Z,24.60
2022-07-30T12:51:19.373Z,24.00
2022-07-30T12:53:46.151Z,24.50
2022-07-30T12:58:40.962Z,23.30
2022-07-30T13:01:08.179Z,24.40
2022-07-30T13:03:41.529Z,24.60
2022-07-30T13:06:12.430Z,24.50
2022-07-30T13:08:45.047Z,23.20
2022-07-30T13:13:38.991Z,22.80
2022-07-30T13:16:06.719Z,22.70
2022-07-30T13:18:34.527Z,23.30
2022-07-30T13:21:01.681Z,24.10
2022-07-30T13:25:57.146Z,23.20
2022-07-30T13:30:51.924Z,24.10
2022-07-30T13:33:18.931Z,24.60
2022-07-30T13:48:05.944Z,28.80
2022-07-30T13:50:32.770Z,28.60
2022-07-30T13:53:02.339Z,28.20
2022-07-30T13:55:29.618Z,28.60
2022-07-30T13:57:56.363Z,27.80
2022-07-30T14:00:23.212Z,28.00
2022-07-30T14:02:50.089Z,25.90
2022-07-30T14:05:16.749Z,27.10
2022-07-30T14:07:43.487Z,27.20
2022-07-30T14:10:10.245Z,27.30
2022-07-30T14:12:37.991Z,26.80
2022-07-30T14:15:04.969Z,26.80
2022-07-30T14:17:32.021Z,26.70
2022-07-30T14:19:58.725Z,26.60
2022-07-30T14:22:25.389Z,28.30
2022-07-30T14:24:52.083Z,28.80
2022-07-30T14:27:23.644Z,29.20
2022-07-30T14:29:50.471Z,28.80
2022-07-30T14:32:17.117Z,28.00
2022-07-30T14:34:49.564Z,27.20
2022-07-30T14:37:16.566Z,26.50
2022-07-30T14:39:43.324Z,24.40
2022-07-30T14:42:10.932Z,25.60
2022-07-30T14:44:38.024Z,24.60
2022-07-30T14:47:05.104Z,22.90
2022-07-30T14:49:32.035Z,23.80
2022-07-30T14:51:58.785Z,24.00
2022-07-30T14:54:25.461Z,22.90
2022-07-30T14:56:57.760Z,24.30
2022-07-30T14:59:26.605Z,22.70
2022-07-30T15:01:54.600Z,22.50
2022-07-30T15:04:21.343Z,22.70
2022-07-30T15:06:48.029Z,22.70
2022-07-30T15:09:14.687Z,24.30
2022-07-30T15:12:08.072Z,23.60
2022-07-30T15:14:28.451Z,24.40
2022-07-30T15:16:56.206Z,23.60
2022-07-30T15:19:25.530Z,23.80
2022-07-30T15:21:52.226Z,24.40
2022-07-30T15:24:18.879Z,22.70
2022-07-30T15:26:45.585Z,24.70
2022-07-30T15:29:13.473Z,24.70
2022-07-30T15:31:40.263Z,25.30
2022-07-30T15:34:10.866Z,24.20
2022-07-30T15:36:39.028Z,25.50
2022-07-30T15:39:06.569Z,26.10
2022-07-30T15:41:33.387Z,25.80
2022-07-30T15:44:00.083Z,25.40
2022-07-30T15:46:26.775Z,25.30
2022-07-30T15:48:53.422Z,24.50
2022-07-30T15:51:20.107Z,24.60
2022-07-30T15:53:46.743Z,24.50
2022-07-30T15:56:13.571Z,23.30
2022-07-30T15:58:43.386Z,22.80
2022-07-30T16:01:10.467Z,22.90
2022-07-30T16:03:37.144Z,22.30
2022-07-30T16:06:04.079Z,22.20
2022-07-30T16:08:30.670Z,22.40
2022-07-30T16:10:58.105Z,23.10
2022-07-30T16:13:24.739Z,24.20
2022-07-30T16:15:51.365Z,23.30
2022-07-30T16:18:18.037Z,24.10
2022-07-30T16:20:44.716Z,24.50
2022-07-30T16:23:14.953Z,24.20
2022-07-30T16:25:43.685Z,24.00
2022-07-30T16:28:10.329Z,23.60
2022-07-30T16:30:37.043Z,23.40
2022-07-30T16:33:18.164Z,23.80
2022-07-30T16:35:49.161Z,22.50
2022-07-30T16:38:18.274Z,22.90
2022-07-30T16:43:12.174Z,22.60
2022-07-30T16:45:38.818Z,22.30
2022-07-30T16:48:05.476Z,22.20
2022-07-30T16:50:32.957Z,22.00
2022-07-30T16:52:59.537Z,21.70
2022-07-30T16:55:26.298Z,21.70
2022-07-30T16:57:52.936Z,21.80
2022-07-30T17:00:19.634Z,21.80
2022-07-30T17:02:46.515Z,21.70
2022-07-30T17:05:13.930Z,22.20
2022-07-30T17:07:40.773Z,21.80
2022-07-30T17:10:07.642Z,22.70
2022-07-30T17:12:41.069Z,21.50
2022-07-30T17:15:17.167Z,23.10
2022-07-30T17:17:43.750Z,23.10
2022-07-30T17:20:10.532Z,21.40
2022-07-30T17:22:40.101Z,21.50
2022-07-30T17:25:09.608Z,21.40
2022-07-30T17:27:36.236Z,21.60
2022-07-30T17:30:04.135Z,21.40
2022-07-30T17:32:31.091Z,21.70
2022-07-30T17:34:57.726Z,21.40
2022-07-30T17:37:24.537Z,21.40
2022-07-30T17:40:26.619Z,22.10
2022-07-30T17:42:39.593Z,21.40
2022-07-30T17:45:07.159Z,21.30
2022-07-30T17:47:33.811Z,21.50
2022-07-30T17:52:28.040Z,21.00
2022-07-30T17:54:54.861Z,21.00
2022-07-30T17:57:21.435Z,20.90
2022-07-30T17:59:48.077Z,20.80
2022-07-30T18:02:14.797Z,20.90
2022-07-30T18:04:41.378Z,21.40
2022-07-30T18:07:07.956Z,20.80
2022-07-30T18:09:40.296Z,20.80
2022-07-30T18:53:52.198Z,19.30
2022-07-30T18:56:18.994Z,19.30
2022-07-30T18:58:45.684Z,19.20
2022-07-30T19:25:45.775Z,18.30
2022-07-30T19:30:40.494Z,18.20
2022-07-30T20:02:58.556Z,17.80
2022-07-30T20:05:27.694Z,17.60
2022-07-30T20:12:51.431Z,17.10
2022-07-30T20:22:40.517Z,17.30
2022-07-30T20:25:07.840Z,17.40
2022-07-30T20:27:36.408Z,17.40
2022-07-30T20:39:55.005Z,17.00
2022-07-30T20:42:23.898Z,17.70
2022-07-30T20:44:53.233Z,17.70
2022-07-30T20:47:34.817Z,16.60
2022-07-30T20:50:09.560Z,16.00
2022-07-30T20:52:37.129Z,16.60
2022-07-30T20:55:09.750Z,15.90
2022-07-30T21:00:27.815Z,16.30
2022-07-30T21:02:54.406Z,18.00
2022-07-30T21:05:21.496Z,16.10
2022-07-30T21:07:48.191Z,15.70
2022-07-30T21:10:19.983Z,15.80
2022-07-30T21:12:53.080Z,18.50
2022-07-30T21:15:24.492Z,16.10
2022-07-30T21:17:53.016Z,18.10
2022-07-30T21:20:27.756Z,16.40
2022-07-30T21:27:50.352Z,16.30
2022-07-30T21:30:17.000Z,15.70
2022-07-30T21:32:43.695Z,17.00
2022-07-30T21:35:11.855Z,16.50
2022-07-30T21:37:38.514Z,15.90
2022-07-30T21:40:09.937Z,17.90
2022-07-30T21:42:36.531Z,16.50
2022-07-30T21:45:15.566Z,15.60
2022-07-30T21:47:47.902Z,17.50
2022-07-30T21:57:40.198Z,15.80
2022-07-30T22:00:14.661Z,15.60
2022-07-30T22:05:38.657Z,15.00
2022-07-30T22:08:06.394Z,15.20
2022-07-30T22:10:34.278Z,15.80
2022-07-30T22:13:03.747Z,15.30
2022-07-30T22:15:30.778Z,15.20
2022-07-30T22:18:00.953Z,15.50
2022-07-30T22:20:28.145Z,16.60
2022-07-30T22:22:55.484Z,15.70
2022-07-30T22:25:22.077Z,15.40
2022-07-30T22:27:56.076Z,15.70
2022-07-30T22:30:25.447Z,15.50
2022-07-30T22:32:53.368Z,15.30
2022-07-30T23:02:55.375Z,15.70
2022-07-30T23:12:26.541Z,16.60
2022-07-30T23:12:32.193Z,15.60
